Time;durP1;ratioP1;P1;durP2;ratioP2;P2;SDS_P1;SDS_P2;PMS_P1;PMS_P2;Temp;Humidity;BMP_temperature;BMP_pressure;BME280_temperature;BME280_humidity;BME280_pressure;Samples;Min_cycle;Max_cycle;Signal;HPM_P1;HPM_P2
2022/08/18 00:00:43;;;;;;;7.85;5.45;;;20.20;99.90;;;;;;5032295;28;20021;-81
2022/08/18 00:03:10;;;;;;;9.38;6.10;;;20.30;99.90;;;;;;5046825;28;20056;-80
2022/08/18 00:05:37;;;;;;;6.32;5.72;;;20.20;99.90;;;;;;5025222;28;20120;-82
2022/08/18 00:08:03;;;;;;;9.80;5.97;;;20.30;99.90;;;;;;5056716;28;20028;-81
2022/08/18 00:10:30;;;;;;;5.78;5.28;;;20.30;99.90;;;;;;5058935;28;20028;-78
2022/08/18 00:12:56;;;;;;;6.72;5.03;;;20.30;99.90;;;;;;5077774;28;20021;-78
2022/08/18 00:15:21;;;;;;;6.95;5.40;;;20.30;99.90;;;;;;5060246;28;20033;-79
2022/08/18 00:17:47;;;;;;;7.72;4.82;;;20.30;99.90;;;;;;5066040;28;20036;-81
2022/08/18 00:20:17;;;;;;;9.02;4.50;;;20.40;99.90;;;;;;5037575;28;20073;-79
2022/08/18 00:22:43;;;;;;;5.50;5.00;;;20.40;99.90;;;;;;5056938;28;20045;-80
2022/08/18 00:25:11;;;;;;;4.75;4.35;;;20.40;99.90;;;;;;5070070;28;20017;-79
2022/08/18 00:27:38;;;;;;;6.70;4.82;;;20.40;99.90;;;;;;5068372;28;20061;-80
2022/08/18 00:30:10;;;;;;;4.88;4.47;;;20.50;99.90;;;;;;5035662;28;20056;-80
2022/08/18 00:32:40;;;;;;;6.30;4.72;;;20.50;99.90;;;;;;5048196;28;20104;-83
2022/08/18 00:35:11;;;;;;;5.80;5.18;;;20.50;99.90;;;;;;5046512;28;20084;-80
2022/08/18 00:37:36;;;;;;;4.78;4.30;;;20.50;99.90;;;;;;5051278;28;20021;-81
2022/08/18 00:40:03;;;;;;;5.20;4.70;;;20.40;99.90;;;;;;5045324;28;20009;-80
2022/08/18 00:42:30;;;;;;;5.20;4.72;;;20.40;99.90;;;;;;5055462;28;20020;-81
2022/08/18 00:44:58;;;;;;;8.45;5.97;;;20.40;99.90;;;;;;5036798;28;20036;-80
2022/08/18 00:47:27;;;;;;;6.53;4.60;;;20.30;99.90;;;;;;5037666;28;20129;-80
2022/08/18 00:49:53;;;;;;;8.45;5.20;;;20.30;99.90;;;;;;5072593;28;20025;-79
2022/08/18 00:52:20;;;;;;;5.93;4.72;;;20.20;99.90;;;;;;5053838;28;20049;-79
2022/08/18 00:54:47;;;;;;;5.88;4.35;;;20.20;99.90;;;;;;5073322;28;20027;-82
2022/08/18 00:57:18;;;;;;;4.55;4.13;;;20.20;99.90;;;;;;5058367;28;20100;-82
2022/08/18 00:59:49;;;;;;;4.97;4.47;;;20.20;99.90;;;;;;5059511;28;20052;-80
2022/08/18 01:02:20;;;;;;;5.30;4.63;;;20.20;99.90;;;;;;5056035;28;20047;-79
2022/08/18 01:05:07;;;;;;;6.28;4.65;;;20.10;99.90;;;;;;5056412;28;20030;-79
2022/08/18 01:07:45;;;;;;;5.63;4.38;;;20.10;99.90;;;;;;5056421;28;20104;-79
2022/08/18 01:10:15;;;;;;;5.18;4.28;;;20.10;99.90;;;;;;5055262;28;20052;-81
2022/08/18 01:12:46;;;;;;;4.38;3.97;;;20.10;99.90;;;;;;5055514;28;20025;-80
2022/08/18 01:15:13;;;;;;;4.97;4.57;;;20.20;99.90;;;;;;5055898;28;20033;-80
2022/08/18 01:23:22;;;;;;;5.75;4.50;;;20.20;99.90;;;;;;5070751;28;20063;-80
2022/08/18 01:25:59;;;;;;;6.15;4.55;;;20.20;99.90;;;;;;5074279;28;20109;-80
2022/08/18 01:28:26;;;;;;;5.28;4.78;;;20.20;99.90;;;;;;5076011;28;20013;-80
2022/08/18 01:30:57;;;;;;;5.28;4.68;;;20.10;99.90;;;;;;5075307;28;20032;-81
2022/08/18 01:33:31;;;;;;;7.00;5.00;;;20.10;99.90;;;;;;5060560;28;20040;-80
2022/08/18 01:36:13;;;;;;;5.43;4.55;;;19.90;99.90;;;;;;5075429;28;20035;-80
2022/08/18 01:38:39;;;;;;;6.30;5.00;;;19.90;99.90;;;;;;5075240;28;20058;-81
2022/08/18 01:41:06;;;;;;;10.05;5.40;;;19.90;99.90;;;;;;5074558;28;20068;-81
2022/08/18 01:43:33;;;;;;;7.68;4.82;;;19.80;99.90;;;;;;5075755;28;20040;-83
2022/08/18 01:46:00;;;;;;;5.75;4.65;;;19.80;99.90;;;;;;5074874;28;20036;-83
2022/08/18 01:48:26;;;;;;;6.15;4.95;;;19.70;99.90;;;;;;5057597;28;20017;-82
2022/08/18 01:50:55;;;;;;;5.00;4.47;;;19.60;99.90;;;;;;5066923;28;20025;-83
2022/08/18 01:53:21;;;;;;;5.35;4.60;;;19.60;99.90;;;;;;5037221;28;20558;-83
2022/08/18 01:55:47;;;;;;;6.70;5.00;;;19.60;99.90;;;;;;5053621;28;20025;-83
2022/08/18 01:58:13;;;;;;;5.70;5.13;;;19.50;99.90;;;;;;5055113;28;20048;-83
2022/08/18 02:00:40;;;;;;;5.07;4.38;;;19.40;99.90;;;;;;5037518;28;20013;-83
2022/08/18 02:03:10;;;;;;;6.00;4.70;;;19.40;99.90;;;;;;5070931;28;20025;-83
2022/08/18 02:05:42;;;;;;;6.18;4.00;;;19.40;99.90;;;;;;5072905;28;20020;-83
2022/08/18 02:08:11;;;;;;;;;;;19.40;99.90;;;;;;5074687;28;20025;-83
2022/08/18 02:10:37;;;;;;;5.30;4.55;;;19.30;99.90;;;;;;5047143;28;19981;-83
2022/08/18 02:13:03;;;;;;;5.20;4.72;;;19.20;99.90;;;;;;5042925;28;20025;-83
2022/08/18 02:15:29;;;;;;;7.70;5.15;;;19.20;99.90;;;;;;5042152;28;20028;-82
2022/08/18 02:17:55;;;;;;;7.85;4.65;;;19.10;99.90;;;;;;5040974;28;20025;-82
2022/08/18 02:20:21;;;;;;;4.78;4.38;;;19.10;99.90;;;;;;5023259;28;20040;-83
2022/08/18 02:22:47;;;;;;;6.85;4.97;;;19.10;99.90;;;;;;5040146;28;20030;-83
2022/08/18 02:25:15;;;;;;;5.55;4.82;;;19.10;99.90;;;;;;5051756;28;20024;-83
2022/08/18 02:27:41;;;;;;;5.05;4.65;;;19.10;99.90;;;;;;5058485;28;20021;-81
2022/08/18 02:30:10;;;;;;;4.80;4.38;;;19.00;99.90;;;;;;5058113;28;20029;-81
2022/08/18 02:32:36;;;;;;;4.93;4.38;;;19.00;99.90;;;;;;5039233;28;20135;-82
2022/08/18 02:35:04;;;;;;;4.68;4.28;;;19.00;99.90;;;;;;5063605;28;20107;-83
2022/08/18 02:37:30;;;;;;;5.32;4.78;;;19.00;99.90;;;;;;5075856;28;20044;-82
2022/08/18 02:39:56;;;;;;;5.90;4.78;;;18.90;99.90;;;;;;5073657;28;20002;-82
2022/08/18 02:42:22;;;;;;;5.07;4.57;;;18.90;99.90;;;;;;5070745;28;20032;-83
2022/08/18 02:44:47;;;;;;;5.35;4.85;;;18.90;99.90;;;;;;5048607;28;20053;-83
2022/08/18 02:47:13;;;;;;;4.88;4.38;;;18.90;99.90;;;;;;5052365;28;20017;-83
2022/08/18 02:49:39;;;;;;;7.03;4.80;;;18.90;99.90;;;;;;5056356;28;20029;-82
2022/08/18 02:52:05;;;;;;;6.97;5.30;;;18.90;99.90;;;;;;5073066;28;20096;-83
2022/08/18 02:54:31;;;;;;;5.60;4.30;;;18.80;99.90;;;;;;5062514;28;20013;-83
2022/08/18 02:56:57;;;;;;;5.88;4.63;;;18.90;99.90;;;;;;5074674;28;20033;-83
2022/08/18 02:59:25;;;;;;;5.20;4.70;;;18.90;99.90;;;;;;5073666;28;20059;-83
2022/08/18 03:01:53;;;;;;;5.35;4.85;;;18.90;99.90;;;;;;5036314;28;20030;-83
2022/08/18 03:04:29;;;;;;;6.03;4.80;;;18.80;99.90;;;;;;5031420;28;20032;-82
2022/08/18 03:06:57;;;;;;;5.05;4.55;;;18.80;99.90;;;;;;5053392;28;20033;-83
2022/08/18 03:09:23;;;;;;;4.72;4.32;;;18.80;99.90;;;;;;5038893;28;20021;-82
2022/08/18 03:11:49;;;;;;;4.55;4.15;;;18.80;99.90;;;;;;5053957;28;20024;-82
2022/08/18 03:14:15;;;;;;;5.88;4.90;;;18.70;99.90;;;;;;5074720;28;20029;-82
2022/08/18 03:16:44;;;;;;;4.63;4.22;;;18.70;99.90;;;;;;5074891;28;20071;-82
2022/08/18 03:19:15;;;;;;;4.90;4.47;;;18.80;99.90;;;;;;5056670;28;20083;-82
2022/08/18 03:21:44;;;;;;;4.70;4.18;;;18.70;99.90;;;;;;5056245;28;20010;-82
2022/08/18 03:24:11;;;;;;;5.38;4.65;;;18.70;99.90;;;;;;5079255;22;20071;-81
2022/08/18 03:26:41;;;;;;;4.53;4.15;;;18.70;99.90;;;;;;5069913;28;20028;-81
2022/08/18 03:29:06;;;;;;;4.65;4.25;;;18.60;99.90;;;;;;5075777;28;20009;-82
2022/08/18 03:31:33;;;;;;;5.10;4.60;;;18.60;99.90;;;;;;5061953;28;20098;-82
2022/08/18 03:34:00;;;;;;;4.38;3.97;;;18.60;99.90;;;;;;5059421;28;20093;-80
2022/08/18 03:36:30;;;;;;;5.03;4.20;;;18.50;99.90;;;;;;5051660;28;20021;-81
2022/08/18 03:38:56;;;;;;;4.50;4.10;;;18.60;99.90;;;;;;5038190;28;20022;-82
2022/08/18 03:41:24;;;;;;;5.15;4.65;;;18.50;99.90;;;;;;5039524;28;20079;-81
2022/08/18 03:43:50;;;;;;;4.63;4.22;;;18.50;99.90;;;;;;5038543;28;20052;-82
2022/08/18 03:46:18;;;;;;;6.32;4.45;;;18.50;99.90;;;;;;5040230;28;20048;-82
2022/08/18 03:48:46;;;;;;;5.25;4.75;;;18.50;99.90;;;;;;5026828;28;20037;-81
2022/08/18 03:51:24;;;;;;;5.03;4.13;;;18.50;99.90;;;;;;5044456;28;20034;-80
2022/08/18 03:53:50;;;;;;;4.38;3.97;;;18.40;99.90;;;;;;5046356;28;20021;-80
2022/08/18 03:56:23;;;;;;;4.22;3.83;;;18.40;99.90;;;;;;5048277;28;20030;-81
2022/08/18 03:58:55;;;;;;;4.30;3.90;;;18.40;99.90;;;;;;5036345;28;20027;-81
2022/08/18 04:01:23;;;;;;;;;;;18.40;99.90;;;;;;5041198;28;20020;-81
2022/08/18 04:03:53;;;;;;;4.30;3.90;;;18.40;99.90;;;;;;5047383;28;20327;-79
2022/08/18 04:06:23;;;;;;;4.97;3.92;;;18.50;99.90;;;;;;5036143;28;20772;-80
2022/08/18 04:08:53;;;;;;;4.20;3.80;;;18.50;99.90;;;;;;5041090;28;20168;-81
2022/08/18 04:11:19;;;;;;;4.00;3.60;;;18.50;99.90;;;;;;5042227;28;20030;-83
2022/08/18 04:13:46;;;;;;;5.03;4.57;;;18.60;99.90;;;;;;5045190;28;20044;-83
2022/08/18 04:16:11;;;;;;;4.70;4.10;;;18.50;99.90;;;;;;5043117;28;20048;-83
2022/08/18 04:18:37;;;;;;;4.88;4.30;;;18.50;99.90;;;;;;5043413;28;20022;-82
2022/08/18 04:21:08;;;;;;;6.05;4.25;;;18.50;99.90;;;;;;5042303;28;20030;-83
2022/08/18 04:23:38;;;;;;;4.97;4.57;;;18.50;99.90;;;;;;5038722;28;20034;-83
2022/08/18 04:26:09;;;;;;;4.45;4.05;;;18.50;99.90;;;;;;5040947;28;20029;-83
2022/08/18 04:28:36;;;;;;;4.07;3.78;;;18.50;99.90;;;;;;5022938;28;20511;-82
2022/08/18 04:31:07;;;;;;;3.95;3.55;;;18.50;99.90;;;;;;5007346;28;20044;-79
2022/08/18 04:33:32;;;;;;;4.00;3.70;;;18.60;99.90;;;;;;5016435;28;20087;-81
2022/08/18 04:35:58;;;;;;;4.25;3.88;;;18.60;99.90;;;;;;5025585;28;20022;-81
2022/08/18 04:38:24;;;;;;;3.70;3.40;;;18.70;99.90;;;;;;5023260;28;20033;-82
2022/08/18 04:40:50;;;;;;;3.50;3.17;;;18.80;99.90;;;;;;5024844;28;20040;-84
2022/08/18 04:43:16;;;;;;;3.95;3.65;;;18.80;99.90;;;;;;5040829;28;20101;-80
2022/08/18 04:45:44;;;;;;;4.30;3.90;;;18.80;99.90;;;;;;5040365;28;20064;-81
2022/08/18 04:48:10;;;;;;;4.18;3.88;;;18.80;99.90;;;;;;5039022;28;20037;-81
2022/08/18 04:50:37;;;;;;;4.25;3.85;;;19.00;99.90;;;;;;5040952;28;20502;-80
2022/08/18 04:55:52;;;;;;;4.82;4.22;;;19.10;99.90;;;;;;5040575;28;20209;-80
2022/08/18 04:58:19;;;;;;;4.88;4.38;;;19.10;99.90;;;;;;5039611;28;20041;-79
2022/08/18 05:00:46;;;;;;;6.10;4.72;;;19.20;99.90;;;;;;5038641;28;20105;-79
2022/08/18 05:03:12;;;;;;;4.30;3.85;;;19.30;99.90;;;;;;5038648;28;20025;-79
2022/08/18 05:05:38;;;;;;;4.55;4.15;;;19.40;99.90;;;;;;5037616;28;20029;-79
2022/08/18 05:08:04;;;;;;;4.45;3.88;;;19.50;99.90;;;;;;5036865;28;20026;-79
2022/08/18 05:10:30;;;;;;;6.22;4.57;;;19.50;99.90;;;;;;5035605;28;20057;-79
2022/08/18 05:12:56;;;;;;;5.20;4.03;;;19.40;99.90;;;;;;5038196;28;20079;-79
2022/08/18 05:15:22;;;;;;;4.82;4.22;;;19.50;99.90;;;;;;5037232;28;20089;-79
2022/08/18 05:17:48;;;;;;;4.95;4.18;;;19.50;99.90;;;;;;5037873;28;20077;-79
2022/08/18 05:20:14;;;;;;;4.40;4.07;;;19.50;99.90;;;;;;5038327;28;20061;-80
2022/08/18 05:22:42;;;;;;;4.03;3.72;;;19.60;99.90;;;;;;5037446;28;20026;-79
2022/08/18 05:25:09;;;;;;;4.18;3.88;;;19.60;99.90;;;;;;5020361;28;20563;-79
2022/08/18 05:27:37;;;;;;;5.80;5.00;;;19.70;99.90;;;;;;5039697;28;20033;-79
2022/08/18 05:30:05;;;;;;;4.50;3.92;;;19.80;99.90;;;;;;5037363;28;20030;-80
2022/08/18 05:32:38;;;;;;;4.07;3.70;;;19.90;99.90;;;;;;5037690;28;20052;-79
2022/08/18 05:35:15;;;;;;;5.47;3.63;;;20.10;99.90;;;;;;5012742;28;20063;-79
2022/08/18 05:38:05;;;;;;;4.90;4.07;;;20.30;99.90;;;;;;5020347;28;20029;-80
2022/08/18 05:40:33;;;;;;;4.97;3.75;;;20.50;99.20;;;;;;5000418;28;20400;-80
2022/08/18 05:42:59;;;;;;;3.97;3.60;;;20.70;98.50;;;;;;5018314;28;20030;-80
2022/08/18 05:45:25;;;;;;;4.95;3.70;;;20.90;97.70;;;;;;5020146;28;20025;-80
2022/08/18 05:47:57;;;;;;;4.28;3.88;;;21.10;96.80;;;;;;5017877;28;20018;-81
2022/08/18 05:50:23;;;;;;;4.22;3.67;;;21.40;96.20;;;;;;5035742;28;20030;-79
2022/08/18 05:52:56;;;;;;;4.88;3.72;;;21.60;95.10;;;;;;5037708;28;20521;-80
2022/08/18 05:58:22;;;;;;;4.25;3.45;;;21.60;93.90;;;;;;5038294;28;20055;-80
2022/08/18 06:00:52;;;;;;;4.32;3.85;;;21.60;93.90;;;;;;5038199;28;20026;-81
2022/08/18 06:03:25;;;;;;;3.80;3.17;;;21.60;93.70;;;;;;5025911;28;20216;-80
2022/08/18 06:06:05;;;;;;;5.20;4.38;;;21.60;93.80;;;;;;5040124;28;20053;-81
2022/08/18 06:08:47;;;;;;;5.47;3.10;;;21.60;93.00;;;;;;5040260;28;20030;-79
2022/08/18 06:11:13;;;;;;;4.70;3.13;;;21.70;92.90;;;;;;5020907;28;20042;-79
2022/08/18 06:13:41;;;;;;;3.70;3.40;;;21.70;93.10;;;;;;5033976;28;20029;-79
2022/08/18 06:16:07;;;;;;;4.18;3.78;;;21.60;92.90;;;;;;5038087;28;20014;-79
2022/08/18 06:18:40;;;;;;;6.43;3.90;;;21.60;92.70;;;;;;5039693;28;20060;-80
2022/08/18 06:21:15;;;;;;;4.03;3.17;;;21.60;92.70;;;;;;5038150;28;20032;-80
2022/08/18 06:23:49;;;;;;;4.68;3.90;;;21.60;92.80;;;;;;5037506;28;20111;-78
2022/08/18 06:26:50;;;;;;;6.13;3.92;;;21.70;92.40;;;;;;5019440;28;20093;-78
2022/08/18 06:29:34;;;;;;;3.75;3.45;;;21.70;91.90;;;;;;5018210;28;20124;-78
2022/08/18 06:32:21;;;;;;;4.38;3.78;;;21.70;92.10;;;;;;5037130;28;20078;-80
2022/08/18 06:35:10;;;;;;;4.90;4.40;;;21.60;92.30;;;;;;5037447;28;20085;-79
2022/08/18 06:40:29;;;;;;;6.95;4.43;;;21.50;92.60;;;;;;5038940;28;20098;-81
2022/08/18 06:42:55;;;;;;;3.85;3.55;;;21.30;93.10;;;;;;5038066;28;20531;-80
2022/08/18 06:45:31;;;;;;;4.10;3.70;;;21.30;93.40;;;;;;5038615;28;20029;-83
2022/08/18 06:48:31;;;;;;;4.90;4.07;;;21.30;93.30;;;;;;5020395;28;20032;-81
2022/08/18 06:51:00;;;;;;;4.53;3.55;;;21.40;93.30;;;;;;5025266;28;20140;-81
2022/08/18 06:53:59;;;;;;;4.18;3.80;;;21.50;93.00;;;;;;5041705;28;20049;-81
2022/08/18 06:56:37;;;;;;;4.20;3.80;;;21.80;92.70;;;;;;5039985;28;20357;-81
2022/08/18 06:59:17;;;;;;;4.22;3.92;;;21.90;92.10;;;;;;5042813;28;20032;-80
2022/08/18 07:01:44;;;;;;;5.30;4.30;;;22.00;92.00;;;;;;5022871;28;20057;-80
2022/08/18 07:04:35;;;;;;;4.63;4.00;;;22.10;91.60;;;;;;5043080;28;20029;-81
2022/08/18 07:07:35;;;;;;;3.80;3.50;;;22.20;91.10;;;;;;5042338;28;20025;-80
2022/08/18 07:10:03;;;;;;;5.13;3.95;;;22.30;90.90;;;;;;4993290;28;20057;-81
2022/08/18 07:12:29;;;;;;;5.28;4.10;;;22.40;90.60;;;;;;5042017;28;20037;-83
2022/08/18 07:15:01;;;;;;;3.92;3.63;;;22.50;90.50;;;;;;5025788;28;20076;-80
2022/08/18 07:17:37;;;;;;;4.05;3.70;;;22.50;90.50;;;;;;5021469;28;20030;-80
2022/08/18 07:20:07;;;;;;;4.80;4.32;;;22.60;90.10;;;;;;5023528;28;20030;-80
2022/08/18 07:22:56;;;;;;;8.00;4.63;;;22.60;89.30;;;;;;5033853;28;20392;-78
2022/08/18 07:25:30;;;;;;;6.93;4.30;;;22.60;89.10;;;;;;5042364;28;20029;-79
2022/08/18 07:28:01;;;;;;;5.80;4.68;;;;;;;;;;5024964;28;20017;-86
2022/08/18 07:30:32;;;;;;;9.85;4.65;;;22.60;89.20;;;;;;5028876;28;20041;-85
2022/08/18 07:33:12;;;;;;;6.53;5.20;;;22.50;90.10;;;;;;5047413;28;20467;-85
2022/08/18 07:36:02;;;;;;;5.47;4.32;;;22.50;89.80;;;;;;5031167;28;20028;-87
2022/08/18 07:38:41;;;;;;;6.05;4.45;;;22.50;90.30;;;;;;5036926;28;20018;-86
2022/08/18 07:41:49;;;;;;;4.97;4.47;;;22.60;90.30;;;;;;5036135;28;20041;-86
2022/08/18 07:44:42;;;;;;;4.60;4.07;;;22.80;89.70;;;;;;4958145;29;20039;-85
2022/08/18 07:47:20;;;;;;;5.88;4.32;;;22.80;89.50;;;;;;5037750;28;20024;-85
2022/08/18 07:49:47;;;;;;;9.88;6.93;;;23.00;89.30;;;;;;5037943;28;20037;-86
2022/08/18 07:52:54;;;;;;;7.13;5.80;;;23.20;87.10;;;;;;5037222;28;20106;-86
2022/08/18 07:55:28;;;;;;;5.68;4.40;;;23.30;86.90;;;;;;5037690;28;20028;-87
2022/08/18 07:58:30;;;;;;;5.78;5.10;;;23.20;87.60;;;;;;5038294;28;20103;-86
2022/08/18 08:01:04;;;;;;;9.27;5.97;;;23.30;86.70;;;;;;5039491;28;20014;-86
2022/08/18 08:03:44;;;;;;;9.23;5.47;;;23.50;84.90;;;;;;5055166;28;20707;-86
2022/08/18 08:06:30;;;;;;;5.35;4.03;;;23.70;82.80;;;;;;5038270;28;20025;-87
2022/08/18 08:09:30;;;;;;;6.50;4.47;;;23.90;84.50;;;;;;4997187;28;20060;-86
2022/08/18 08:12:05;;;;;;;8.75;5.32;;;24.20;81.80;;;;;;5037145;28;20034;-86
2022/08/18 08:14:44;;;;;;;5.22;4.80;;;24.00;81.20;;;;;;5054470;28;20025;-86
2022/08/18 08:17:32;;;;;;;6.88;4.55;;;23.50;82.50;;;;;;5037986;28;20025;-87
2022/08/18 08:20:09;;;;;;;9.05;6.18;;;23.30;84.10;;;;;;5036518;28;20022;-88
2022/08/18 08:22:57;;;;;;;6.25;5.25;;;23.40;83.60;;;;;;5036483;28;20067;-86
2022/08/18 08:25:45;;;;;;;5.50;5.00;;;23.60;83.30;;;;;;5037194;28;20037;-87
2022/08/18 08:28:38;;;;;;;11.30;5.95;;;24.00;81.90;;;;;;5037454;28;20025;-86
2022/08/18 08:31:32;;;;;;;9.13;5.47;;;24.30;80.90;;;;;;5037868;28;20038;-86
2022/08/18 08:34:30;;;;;;;5.88;5.38;;;24.50;79.80;;;;;;5053229;28;20030;-87
2022/08/18 08:37:14;;;;;;;7.15;6.43;;;24.50;79.30;;;;;;5039137;28;20021;-88
2022/08/18 08:40:07;;;;;;;5.10;4.70;;;24.50;78.80;;;;;;5038411;28;20033;-85
2022/08/18 08:42:41;;;;;;;5.57;5.07;;;24.50;79.50;;;;;;5036174;28;20026;-86
2022/08/18 08:45:29;;;;;;;5.30;4.65;;;24.50;78.30;;;;;;5035878;28;20031;-87
2022/08/18 08:48:03;;;;;;;7.50;5.40;;;24.70;78.90;;;;;;5051999;28;20053;-88
2022/08/18 08:50:37;;;;;;;6.53;5.25;;;24.60;77.10;;;;;;5052533;28;20056;-87
2022/08/18 08:53:26;;;;;;;5.18;4.47;;;24.50;75.60;;;;;;5053934;28;20338;-86
2022/08/18 08:56:01;;;;;;;4.97;3.90;;;24.40;76.60;;;;;;5037883;28;20013;-85
2022/08/18 09:07:35;;;;;;;5.85;4.88;;;26.00;72.50;;;;;;5091554;28;20265;-87
2022/08/18 09:10:35;;;;;;;5.10;4.03;;;26.10;69.40;;;;;;5094426;28;20028;-87
2022/08/18 09:13:23;;;;;;;5.60;4.75;;;26.10;69.60;;;;;;5077332;28;20119;-86
2022/08/18 09:26:49;;;;;;;8.75;4.68;;;25.50;67.50;;;;;;5074384;22;20083;-84
2022/08/18 09:33:32;;;;;;;5.90;5.28;;;25.80;67.50;;;;;;5016296;28;20114;-86
2022/08/18 09:36:38;;;;;;;4.63;4.22;;;25.80;66.80;;;;;;4984721;28;20647;-85
2022/08/18 09:49:42;;;;;;;;;;;;;;;;;;;;;
2022/08/18 10:05:30;;;;;;;7.20;5.70;;;26.70;62.90;;;;;;4938339;29;20139;-86
2022/08/18 10:09:06;;;;;;;5.28;4.15;;;26.40;63.90;;;;;;4922050;29;20028;-85
2022/08/18 10:15:24;;;;;;;7.65;4.50;;;27.20;61.90;;;;;;4915334;29;20041;-84
2022/08/18 10:40:42;;;;;;;7.78;5.78;;;28.20;58.60;;;;;;3062119;22;20057;-84
2022/08/18 10:43:37;;;;;;;4.63;4.22;;;28.20;58.00;;;;;;5088768;28;20049;-84
2022/08/18 10:52:42;;;;;;;4.47;4.07;;;27.40;59.80;;;;;;5087497;28;20068;-85
2022/08/18 10:55:26;;;;;;;4.03;3.70;;;27.10;59.80;;;;;;5085834;28;20020;-85
2022/08/18 10:58:35;;;;;;;9.43;5.00;;;26.90;60.00;;;;;;5089995;28;20025;-85
2022/08/18 11:04:24;;;;;;;6.53;5.25;;;27.10;60.80;;;;;;5064918;28;20024;-85
2022/08/18 11:07:20;;;;;;;5.72;4.50;;;27.40;59.60;;;;;;5065129;28;20055;-84
2022/08/18 11:35:10;;;;;;;4.97;4.47;;;29.00;55.90;;;;;;5773027;22;20052;-84
2022/08/18 11:38:30;;;;;;;5.85;5.22;;;28.80;56.50;;;;;;5040363;28;20026;-85
2022/08/18 11:41:48;;;;;;;4.60;4.18;;;29.00;56.60;;;;;;5021757;28;20101;-85
2022/08/18 12:33:41;;;;;;;;;;;;;;;;;;;;;
2022/08/18 12:36:50;;;;;;;5.40;4.53;;;29.00;57.20;;;;;;5076477;28;20033;-85
2022/08/18 12:40:10;;;;;;;5.05;4.35;;;28.90;57.50;;;;;;5058997;28;20583;-84
2022/08/18 12:46:41;;;;;;;6.57;5.18;;;28.90;57.30;;;;;;4995637;28;20054;-84
2022/08/18 12:49:43;;;;;;;5.57;5.10;;;28.80;56.70;;;;;;4997932;28;20015;-85
2022/08/18 12:56:55;;;;;;;;;;;;;;;;;;;;;
2022/08/18 13:10:29;;;;;;;3.60;3.40;;;29.80;54.30;;;;;;4952755;28;20116;-85
2022/08/18 13:27:30;;;;;;;4.78;4.13;;;29.40;53.90;;;;;;5080817;22;19920;-85
2022/08/18 13:30:49;;;;;;;4.43;4.05;;;29.10;55.00;;;;;;5029259;28;20057;-85
2022/08/18 13:37:14;;;;;;;4.10;3.85;;;28.70;56.50;;;;;;4923266;28;20037;-84
2022/08/18 13:39:43;;;;;;;5.75;4.40;;;28.60;57.10;;;;;;5008959;28;20037;-86
2022/08/18 13:42:28;;;;;;;5.18;4.68;;;28.50;57.10;;;;;;5006959;28;20122;-85
2022/08/18 13:45:19;;;;;;;6.25;4.47;;;28.30;57.10;;;;;;5040804;28;20052;-84
2022/08/18 13:47:55;;;;;;;4.65;4.20;;;28.10;57.70;;;;;;5040131;28;20033;-85
2022/08/18 14:01:02;;;;;;;8.20;6.90;;;27.70;59.60;;;;;;5042087;28;20040;-86
2022/08/18 14:03:36;;;;;;;5.97;4.55;;;27.70;59.60;;;;;;5016941;28;20403;-85
2022/08/18 14:07:18;;;;;;;8.48;5.75;;;27.60;60.10;;;;;;5001975;28;20040;-86
2022/08/18 14:10:50;;;;;;;4.93;4.40;;;27.60;60.20;;;;;;4932065;29;20040;-85
2022/08/18 14:47:47;;;;;;;4.70;4.20;;;26.80;62.10;;;;;;5001774;28;20038;-85
2022/08/18 14:50:29;;;;;;;6.70;5.03;;;26.80;62.80;;;;;;5033682;28;20033;-85
2022/08/18 15:27:31;;;;;;;6.03;5.22;;;26.50;64.30;;;;;;5213827;22;20045;-84
2022/08/18 15:29:57;;;;;;;6.45;5.10;;;26.40;64.40;;;;;;5032180;28;20029;-86
2022/08/18 15:32:23;;;;;;;5.05;4.53;;;26.30;65.00;;;;;;5025639;28;20025;-87
2022/08/18 15:34:50;;;;;;;4.90;4.40;;;26.20;65.10;;;;;;5030034;28;20541;-86
2022/08/18 15:37:17;;;;;;;9.70;5.55;;;26.20;65.50;;;;;;5049699;28;20021;-84
2022/08/18 15:39:43;;;;;;;6.05;5.07;;;26.10;65.80;;;;;;5031908;28;20446;-87
2022/08/18 15:42:10;;;;;;;5.38;4.88;;;26.10;66.60;;;;;;5032645;28;20114;-86
2022/08/18 15:44:36;;;;;;;6.13;4.78;;;26.00;67.50;;;;;;5031633;28;20037;-84
2022/08/18 15:47:03;;;;;;;5.35;4.85;;;26.00;68.30;;;;;;5030589;28;20119;-85
2022/08/18 15:49:31;;;;;;;6.10;4.88;;;26.00;68.70;;;;;;5028756;28;20238;-86
2022/08/18 15:51:57;;;;;;;7.63;4.88;;;25.90;69.10;;;;;;5032777;28;20009;-87
2022/08/18 15:54:22;;;;;;;4.60;4.20;;;25.90;69.80;;;;;;5054098;28;20033;-85
2022/08/18 15:56:48;;;;;;;5.93;4.60;;;25.80;69.80;;;;;;5033421;28;20029;-84
2022/08/18 15:59:14;;;;;;;6.20;5.10;;;25.80;70.20;;;;;;5034463;28;20075;-83
2022/08/18 16:01:39;;;;;;;5.38;4.88;;;25.70;69.70;;;;;;5053649;28;20041;-83
2022/08/18 16:04:06;;;;;;;5.68;5.07;;;25.60;69.90;;;;;;5044231;28;20029;-82
2022/08/18 16:06:36;;;;;;;5.70;5.07;;;25.50;70.40;;;;;;5051675;28;20017;-84
2022/08/18 16:09:03;;;;;;;5.70;5.20;;;25.40;70.60;;;;;;5052293;28;20026;-82
2022/08/18 16:11:29;;;;;;;5.70;4.60;;;25.30;71.00;;;;;;5035880;28;20044;-83
2022/08/18 16:13:57;;;;;;;5.68;5.13;;;25.20;71.10;;;;;;5034275;28;20057;-82
2022/08/18 16:16:24;;;;;;;5.63;5.13;;;25.20;71.40;;;;;;5051245;28;20021;-83
2022/08/18 16:18:52;;;;;;;7.78;4.90;;;25.10;71.40;;;;;;5034599;28;20021;-83
2022/08/18 16:21:21;;;;;;;4.65;4.30;;;25.10;71.50;;;;;;5053255;28;20095;-82
2022/08/18 16:23:50;;;;;;;4.85;4.55;;;25.20;71.40;;;;;;5053023;28;20077;-83
2022/08/18 16:26:18;;;;;;;5.10;4.70;;;25.20;71.40;;;;;;5053198;28;20064;-82
2022/08/18 16:28:51;;;;;;;7.20;5.38;;;25.30;71.40;;;;;;5050426;28;20029;-82
2022/08/18 16:31:23;;;;;;;5.78;5.18;;;25.30;70.70;;;;;;5050120;28;20245;-84
2022/08/18 16:33:49;;;;;;;5.18;4.68;;;25.30;70.80;;;;;;5046516;28;20030;-85
2022/08/18 16:36:16;;;;;;;5.78;4.63;;;25.20;71.10;;;;;;5026435;28;20036;-85
2022/08/18 16:38:42;;;;;;;5.25;4.75;;;25.20;71.80;;;;;;5046358;28;20021;-81
2022/08/18 16:41:13;;;;;;;4.88;4.40;;;25.20;72.10;;;;;;5031821;28;20030;-85
2022/08/18 16:43:43;;;;;;;4.88;4.30;;;25.20;72.70;;;;;;5026400;28;20021;-84
2022/08/18 16:46:14;;;;;;;4.72;4.43;;;25.10;73.10;;;;;;5047816;28;20021;-84
2022/08/18 16:48:40;;;;;;;4.85;4.45;;;25.20;74.20;;;;;;5044336;28;20029;-82
2022/08/18 16:51:06;;;;;;;4.50;4.13;;;25.20;74.50;;;;;;5045315;28;20049;-82
2022/08/18 16:53:32;;;;;;;4.85;4.45;;;25.20;74.80;;;;;;5044554;28;20026;-83
2022/08/18 16:55:57;;;;;;;4.65;4.22;;;25.10;74.80;;;;;;5041740;28;20024;-84
2022/08/18 17:04:07;;;;;;;4.35;3.95;;;25.00;75.10;;;;;;5043567;28;20093;-84
2022/08/18 17:06:35;;;;;;;4.57;4.23;;;25.00;75.00;;;;;;5038867;28;20022;-86
2022/08/18 17:09:02;;;;;;;4.93;4.63;;;24.90;74.90;;;;;;5022972;28;20284;-85
2022/08/18 17:11:28;;;;;;;4.97;4.53;;;24.80;74.60;;;;;;5042762;28;20089;-83
2022/08/18 17:13:56;;;;;;;5.00;4.60;;;24.80;74.60;;;;;;5049474;28;20032;-85
2022/08/18 17:16:24;;;;;;;5.22;4.72;;;24.80;74.70;;;;;;5043537;28;20025;-86
2022/08/18 17:18:50;;;;;;;4.72;4.32;;;24.70;74.80;;;;;;5032964;28;20017;-86
2022/08/18 17:21:20;;;;;;;4.65;4.25;;;24.70;74.90;;;;;;5029795;28;20065;-83
2022/08/18 17:23:46;;;;;;;5.88;5.28;;;24.60;74.90;;;;;;5044851;28;20030;-85
2022/08/18 17:26:25;;;;;;;6.22;5.32;;;24.60;74.80;;;;;;5041553;28;20117;-81
2022/08/18 17:28:56;;;;;;;10.45;6.22;;;24.50;74.90;;;;;;5046327;28;20075;-84
2022/08/18 17:31:23;;;;;;;4.47;4.05;;;24.50;75.20;;;;;;5040919;28;20014;-81
2022/08/18 17:33:54;;;;;;;4.78;4.28;;;24.30;79.30;;;;;;5046443;28;20133;-81
2022/08/18 17:36:34;;;;;;;6.43;4.88;;;23.60;84.60;;;;;;5043658;28;20030;-82
2022/08/18 17:39:04;;;;;;;9.25;5.38;;;22.90;90.40;;;;;;5035609;28;20061;-82
2022/08/18 17:41:30;;;;;;;7.82;5.20;;;22.20;92.90;;;;;;5043718;28;20149;-83
2022/08/18 17:43:57;;;;;;;11.25;7.18;;;21.70;95.80;;;;;;5050744;28;20499;-84
2022/08/18 17:46:28;;;;;;;15.60;9.70;;;;;;;;;;5048016;28;20013;-83
2022/08/18 17:49:16;;;;;;;12.77;9.02;;;19.70;99.90;;;;;;5046036;28;20178;-81
2022/08/18 17:51:47;;;;;;;16.45;11.88;;;19.70;99.90;;;;;;5042822;28;20036;-82
2022/08/18 17:54:39;;;;;;;18.73;13.88;;;19.40;99.90;;;;;;5033121;28;20041;-82
2022/08/18 17:57:29;;;;;;;19.38;13.60;;;19.30;99.90;;;;;;5027503;28;20036;-80
2022/08/18 18:00:11;;;;;;;16.50;14.25;;;19.20;99.90;;;;;;5028375;28;20132;-82
2022/08/18 18:02:38;;;;;;;17.13;15.33;;;19.20;99.90;;;;;;5043091;28;20104;-82
2022/08/18 18:05:09;;;;;;;21.92;17.27;;;19.30;99.90;;;;;;5038429;28;20024;-82
2022/08/18 18:07:50;;;;;;;25.05;17.65;;;19.20;99.90;;;;;;5048822;28;20100;-82
2022/08/18 18:10:42;;;;;;;19.50;16.30;;;19.20;99.90;;;;;;5046390;28;20030;-84
2022/08/18 18:13:10;;;;;;;17.35;12.75;;;19.20;99.90;;;;;;5046412;28;20097;-83
2022/08/18 18:15:39;;;;;;;9.40;8.52;;;19.10;99.90;;;;;;5028660;28;20029;-83
2022/08/18 18:18:40;;;;;;;11.15;7.30;;;19.10;99.90;;;;;;5029217;28;20524;-82
2022/08/18 18:21:18;;;;;;;5.55;4.78;;;19.00;99.90;;;;;;5023760;28;20048;-81